Time;durP1;ratioP1;P1;durP2;ratioP2;P2;SDS_P1;SDS_P2;PMS_P1;PMS_P2;Temp;Humidity;BMP_temperature;BMP_pressure;BME280_temperature;BME280_humidity;BME280_pressure;Samples;Min_cycle;Max_cycle;Signal;HPM_P1;HPM_P2
2023/08/22 00:01:25;;;;;;;5.82;3.55;;;;;;;21.21;64.59;101980.16;5016457;28;20077;-66
2023/08/22 00:03:53;;;;;;;5.95;2.72;;;;;;;21.46;64.60;101972.22;5012816;28;20033;-67
2023/08/22 00:06:20;;;;;;;3.35;3.05;;;;;;;21.52;62.65;101965.53;5015724;28;20037;-66
2023/08/22 00:08:45;;;;;;;7.63;4.15;;;;;;;21.52;62.94;101957.47;5015695;28;20026;-68
2023/08/22 00:11:10;;;;;;;4.82;3.60;;;;;;;21.37;63.81;101967.44;5013459;28;20069;-68
2023/08/22 00:13:36;;;;;;;4.70;3.70;;;;;;;21.39;63.89;101973.56;5011257;28;20037;-68
2023/08/22 00:16:02;;;;;;;5.20;3.88;;;;;;;21.34;63.93;101973.88;5007492;28;20104;-68
2023/08/22 00:18:27;;;;;;;5.43;3.53;;;;;;;21.21;64.37;101966.72;5011213;28;20026;-68
2023/08/22 00:20:53;;;;;;;4.88;3.88;;;;;;;21.17;64.44;101968.75;5017986;28;20396;-68
2023/08/22 00:23:18;;;;;;;7.13;4.50;;;;;;;21.06;65.25;101957.84;5012201;28;20061;-68
2023/08/22 00:25:44;;;;;;;5.05;3.88;;;;;;;20.93;65.55;101967.69;5015251;28;20030;-68
2023/08/22 00:28:09;;;;;;;8.07;3.88;;;;;;;20.94;65.40;101969.41;5019204;28;20051;-68
2023/08/22 00:30:35;;;;;;;5.80;3.83;;;;;;;21.06;65.24;101966.78;5011041;28;20034;-68
2023/08/22 00:33:00;;;;;;;4.47;3.88;;;;;;;21.11;65.16;101975.38;5014870;28;20043;-68
2023/08/22 00:35:28;;;;;;;4.82;3.67;;;;;;;21.22;64.26;101961.25;5018744;28;20029;-68
2023/08/22 00:37:53;;;;;;;5.47;3.65;;;;;;;21.25;63.52;101957.47;5012510;28;20030;-68
2023/08/22 00:40:19;;;;;;;5.70;3.70;;;;;;;21.25;64.95;101960.16;5009913;28;20472;-68
2023/08/22 00:42:44;;;;;;;8.63;4.72;;;;;;;20.94;66.03;101955.97;5010670;28;20045;-68
2023/08/22 00:45:09;;;;;;;8.27;4.43;;;;;;;20.77;66.73;101957.09;5014639;28;20029;-68
2023/08/22 00:47:35;;;;;;;4.82;4.32;;;;;;;20.69;67.18;101956.72;5015076;28;20030;-68
2023/08/22 00:50:02;;;;;;;6.80;4.60;;;;;;;20.55;67.54;101958.47;5015864;28;20052;-68
2023/08/22 00:52:27;;;;;;;5.45;3.95;;;;;;;20.57;67.87;101955.69;5014419;28;20034;-68
2023/08/22 00:54:52;;;;;;;6.55;4.60;;;;;;;20.45;68.22;101953.75;5014752;28;20033;-68
2023/08/22 00:57:18;;;;;;;4.95;4.10;;;;;;;20.53;67.73;101951.47;5007508;28;20026;-68
2023/08/22 00:59:43;;;;;;;9.75;4.45;;;;;;;20.63;67.39;101944.53;5005068;28;20750;-68
2023/08/22 01:02:09;;;;;;;8.07;4.30;;;;;;;20.75;66.76;101946.44;5007230;28;20030;-68
2023/08/22 01:04:34;;;;;;;9.10;4.53;;;;;;;20.84;66.32;101947.63;5015919;28;20536;-68
2023/08/22 01:07:12;;;;;;;6.97;4.72;;;;;;;20.92;66.40;101939.06;5005322;28;20054;-68
2023/08/22 01:10:18;;;;;;;7.80;3.97;;;;;;;21.30;63.91;101939.19;5010260;28;20319;-68
2023/08/22 01:12:59;;;;;;;6.97;4.30;;;;;;;21.26;64.39;101930.47;4929580;29;20484;-68
2023/08/22 01:15:26;;;;;;;7.40;4.45;;;;;;;21.11;64.86;101934.19;4998451;28;20412;-68
2023/08/22 01:18:01;;;;;;;5.97;4.45;;;;;;;21.10;65.13;101932.47;5010168;28;20022;-68
2023/08/22 01:20:27;;;;;;;5.55;4.45;;;;;;;20.85;65.91;101933.25;4998138;28;20025;-68
2023/08/22 01:22:52;;;;;;;7.25;5.10;;;;;;;20.93;65.87;101952.41;5018346;28;20501;-68
2023/08/22 01:25:18;;;;;;;7.75;4.93;;;;;;;20.97;65.56;101942.31;5015319;28;20369;-68
2023/08/22 01:27:56;;;;;;;6.45;4.70;;;;;;;20.95;65.55;101944.25;5009724;28;20156;-68
2023/08/22 01:30:47;;;;;;;6.80;4.40;;;;;;;20.77;65.92;101935.59;5011987;28;20118;-68
2023/08/22 01:33:38;;;;;;;8.15;4.65;;;;;;;20.63;67.03;101939.16;4950882;28;20053;-68
2023/08/22 01:36:07;;;;;;;6.63;4.50;;;;;;;20.68;66.72;101926.28;5001603;28;20041;-68
2023/08/22 01:38:34;;;;;;;8.73;4.60;;;;;;;20.58;67.46;101927.88;5008983;28;20033;-68
2023/08/22 01:41:01;;;;;;;8.65;5.50;;;;;;;20.44;67.72;101919.81;5024709;28;20056;-68
2023/08/22 01:43:27;;;;;;;7.22;4.78;;;;;;;20.46;67.72;101931.28;5010557;28;20021;-68
2023/08/22 01:45:52;;;;;;;9.77;5.05;;;;;;;20.49;67.57;101929.31;5013093;28;20035;-68
2023/08/22 01:48:18;;;;;;;9.77;5.25;;;;;;;20.53;67.24;101928.16;5011863;28;20029;-68
2023/08/22 01:50:43;;;;;;;9.00;5.13;;;;;;;20.56;67.44;101932.44;5015370;28;20075;-68
2023/08/22 01:53:08;;;;;;;9.85;5.30;;;;;;;20.53;67.85;101933.53;5000161;28;20075;-68
2023/08/22 01:55:33;;;;;;;6.50;4.47;;;;;;;20.57;67.42;101928.81;5016426;28;20030;-68
2023/08/22 01:57:59;;;;;;;9.80;5.38;;;;;;;20.54;68.00;101927.19;5013035;28;20098;-68
2023/08/22 02:00:24;;;;;;;8.10;5.22;;;;;;;20.43;68.33;101928.81;5014460;28;20026;-68
2023/08/22 02:02:49;;;;;;;10.73;5.20;;;;;;;20.19;69.01;101925.84;5005194;28;20308;-68
2023/08/22 02:05:15;;;;;;;7.15;5.32;;;;;;;20.02;69.87;101927.78;5012890;28;20050;-68
2023/08/22 02:07:41;;;;;;;8.15;5.32;;;;;;;19.95;69.93;101928.25;5021121;28;20045;-68
2023/08/22 02:10:06;;;;;;;9.57;5.22;;;;;;;19.81;70.55;101924.59;5005639;28;20026;-68
2023/08/22 02:12:32;;;;;;;7.57;5.28;;;;;;;19.79;70.66;101923.00;5009569;28;20091;-68
2023/08/22 02:14:57;;;;;;;12.30;5.68;;;;;;;19.71;71.54;101923.44;4988549;28;20051;-68
2023/08/22 02:17:22;;;;;;;7.72;5.20;;;;;;;19.71;71.44;101922.59;5012122;28;20026;-68
2023/08/22 02:19:48;;;;;;;9.15;5.55;;;;;;;19.78;71.12;101921.28;5008504;28;20533;-68
2023/08/22 02:22:13;;;;;;;11.77;5.40;;;;;;;19.77;71.17;101911.47;5020176;28;20030;-68
2023/08/22 02:24:38;;;;;;;9.48;5.07;;;;;;;19.70;70.96;101913.69;5011132;28;20547;-68
2023/08/22 02:27:04;;;;;;;8.93;5.43;;;;;;;19.56;71.91;101909.13;5009321;28;20034;-68
2023/08/22 02:29:30;;;;;;;12.93;5.65;;;;;;;19.56;72.23;101914.50;5006905;28;20026;-68
2023/08/22 02:31:55;;;;;;;8.55;5.65;;;;;;;19.55;72.34;101911.91;5013853;28;20030;-68
2023/08/22 02:34:21;;;;;;;6.45;5.35;;;;;;;19.63;71.57;101912.31;5011463;28;20084;-68
2023/08/22 02:36:47;;;;;;;7.45;5.38;;;;;;;19.80;70.77;101906.78;5009172;28;20092;-68
2023/08/22 02:39:13;;;;;;;7.55;5.38;;;;;;;19.93;69.99;101906.91;5007892;28;20026;-66
2023/08/22 02:41:38;;;;;;;8.07;5.68;;;;;;;19.82;71.09;101902.22;5019157;28;20262;-67
2023/08/22 02:44:03;;;;;;;7.30;5.60;;;;;;;19.83;70.73;101906.59;5010166;28;20549;-66
2023/08/22 02:46:29;;;;;;;6.95;5.47;;;;;;;19.90;70.25;101899.03;5009899;28;20041;-66
2023/08/22 02:48:54;;;;;;;8.10;5.05;;;;;;;19.97;69.92;101902.19;5009996;28;20025;-66
2023/08/22 02:51:19;;;;;;;6.65;5.32;;;;;;;20.04;69.31;101906.22;5019699;28;20314;-67
2023/08/22 02:53:45;;;;;;;10.43;5.50;;;;;;;20.12;69.32;101906.59;5014290;28;20033;-67
2023/08/22 02:56:10;;;;;;;8.18;5.72;;;;;;;20.12;69.40;101899.41;5014756;28;20036;-66
2023/08/22 02:58:36;;;;;;;6.10;5.22;;;;;;;20.14;69.73;101904.66;5009662;28;20437;-66
2023/08/22 03:01:04;;;;;;;9.23;4.93;;;;;;;20.19;69.32;101904.38;5010897;28;20032;-66
2023/08/22 03:03:29;;;;;;;8.40;5.25;;;;;;;20.05;70.26;101906.13;5009167;28;20037;-67
2023/08/22 03:05:57;;;;;;;9.65;4.38;;;;;;;20.12;69.55;101909.28;5015414;28;20045;-66
2023/08/22 03:08:22;;;;;;;11.10;6.00;;;;;;;20.18;69.39;101905.34;5011219;28;20021;-66
2023/08/22 03:10:48;;;;;;;8.70;5.80;;;;;;;20.16;69.31;101900.09;5015465;28;20087;-67
2023/08/22 03:13:13;;;;;;;14.73;6.78;;;;;;;20.16;69.92;101907.28;5009734;28;20033;-66
2023/08/22 03:15:38;;;;;;;8.77;6.05;;;;;;;20.16;69.73;101907.28;5010380;28;20501;-66
2023/08/22 03:18:04;;;;;;;7.50;5.60;;;;;;;20.06;69.92;101915.06;5016397;28;20104;-66
2023/08/22 03:20:29;;;;;;;11.40;6.00;;;;;;;19.96;70.62;101904.03;5013229;28;20030;-66
2023/08/22 03:22:54;;;;;;;13.90;6.45;;;;;;;19.79;71.22;101914.94;5019309;28;20165;-67
2023/08/22 03:25:19;;;;;;;9.70;6.65;;;;;;;19.59;71.88;101900.91;5021968;28;20026;-67
2023/08/22 03:27:45;;;;;;;10.30;6.30;;;;;;;19.57;72.46;101905.47;5010290;28;20726;-66
2023/08/22 03:30:10;;;;;;;7.78;5.15;;;;;;;19.62;71.53;101903.41;5009249;28;20044;-66
2023/08/22 03:32:36;;;;;;;8.02;5.30;;;;;;;19.67;71.92;101900.44;5010598;28;20026;-67
2023/08/22 03:35:01;;;;;;;11.32;6.60;;;;;;;19.71;71.05;101904.66;5016119;28;20030;-66
2023/08/22 03:37:26;;;;;;;10.30;6.07;;;;;;;19.77;70.99;101906.09;5011730;28;20032;-67
2023/08/22 03:39:51;;;;;;;8.02;5.20;;;;;;;19.77;71.07;101901.63;5019277;28;20045;-66
2023/08/22 03:42:17;;;;;;;15.00;6.97;;;;;;;19.73;71.45;101905.47;5023546;28;20032;-66
2023/08/22 03:44:42;;;;;;;10.88;6.15;;;;;;;19.50;72.56;101898.78;5007926;28;20042;-66
2023/08/22 03:47:08;;;;;;;9.93;6.05;;;;;;;19.29;73.03;101894.69;5019443;28;20036;-66
2023/08/22 03:49:33;;;;;;;8.77;6.60;;;;;;;19.20;73.31;101889.88;5013748;28;20027;-66
2023/08/22 03:51:58;;;;;;;8.70;6.03;;;;;;;19.26;72.76;101892.22;5020114;28;20105;-66
2023/08/22 03:54:23;;;;;;;6.75;5.38;;;;;;;19.34;72.56;101898.81;5013597;28;20041;-67
2023/08/22 03:56:49;;;;;;;9.60;5.88;;;;;;;19.41;72.44;101899.34;5014305;28;20048;-66
2023/08/22 03:59:14;;;;;;;10.60;6.13;;;;;;;19.44;71.97;101895.59;4993741;28;20030;-66
2023/08/22 04:01:40;;;;;;;8.63;6.05;;;;;;;19.47;71.49;101898.97;5011401;28;20025;-66
2023/08/22 04:04:05;;;;;;;6.53;5.75;;;;;;;19.49;71.87;101897.06;5002499;28;20101;-66
2023/08/22 04:06:30;;;;;;;13.38;8.27;;;;;;;19.49;71.75;101896.16;5006904;28;20062;-66
2023/08/22 04:08:55;;;;;;;8.57;6.20;;;;;;;19.51;70.94;101903.19;5015461;28;20571;-66
2023/08/22 04:11:21;;;;;;;8.98;5.18;;;;;;;19.48;69.57;101900.69;5014648;28;20021;-66
2023/08/22 04:13:46;;;;;;;9.15;5.72;;;;;;;19.42;70.13;101890.34;5010486;28;20034;-67
2023/08/22 04:16:11;;;;;;;10.45;5.85;;;;;;;19.44;70.53;101900.97;5014259;28;20366;-67
2023/08/22 04:18:37;;;;;;;10.23;6.28;;;;;;;19.16;72.40;101894.56;5015386;28;20036;-66
2023/08/22 04:21:03;;;;;;;10.95;6.60;;;;;;;18.91;73.53;101889.78;5016270;28;20034;-66
2023/08/22 04:23:28;;;;;;;12.73;6.47;;;;;;;18.85;73.57;101891.03;5014354;28;20083;-67
2023/08/22 04:25:53;;;;;;;10.65;7.53;;;;;;;18.73;73.42;101891.72;5011890;28;20033;-66
2023/08/22 04:28:19;;;;;;;8.95;7.60;;;;;;;18.59;73.86;101887.13;5016882;28;20117;-66
2023/08/22 04:30:45;;;;;;;9.95;7.47;;;;;;;18.41;74.65;101889.97;5013996;28;20044;-66
2023/08/22 04:33:10;;;;;;;9.60;7.50;;;;;;;18.30;75.39;101886.09;5009123;28;20025;-67
2023/08/22 04:35:37;;;;;;;10.73;6.78;;;;;;;18.32;75.07;101889.53;5009447;28;20044;-66
2023/08/22 04:38:03;;;;;;;9.63;6.15;;;;;;;18.46;74.23;101894.13;4999578;28;20033;-67
2023/08/22 04:40:28;;;;;;;5.72;5.05;;;;;;;18.59;73.67;101892.47;5001653;28;20504;-66
2023/08/22 04:42:53;;;;;;;8.63;4.95;;;;;;;18.71;73.51;101890.97;5006535;28;20029;-67
2023/08/22 04:45:19;;;;;;;6.65;4.97;;;;;;;18.76;73.45;101896.91;5012228;28;20416;-66
2023/08/22 04:47:44;;;;;;;8.65;5.10;;;;;;;18.79;73.11;101895.84;5000397;28;20026;-67
2023/08/22 04:50:09;;;;;;;7.47;6.00;;;;;;;18.61;73.46;101900.44;5004214;28;20029;-68
2023/08/22 04:52:35;;;;;;;10.43;5.85;;;;;;;18.45;74.20;101892.41;5018845;28;20037;-68
2023/08/22 04:55:00;;;;;;;11.15;7.13;;;;;;;18.30;74.83;101904.84;5011672;28;20045;-68
2023/08/22 04:57:26;;;;;;;7.72;5.15;;;;;;;18.41;74.32;101900.69;5014510;28;20045;-68
2023/08/22 04:59:53;;;;;;;5.15;4.63;;;;;;;18.52;73.59;101906.31;5013781;28;20025;-68
2023/08/22 05:02:18;;;;;;;6.55;5.05;;;;;;;18.62;73.54;101894.13;5014515;28;20053;-68
2023/08/22 05:04:44;;;;;;;6.90;5.13;;;;;;;18.65;73.65;101893.94;5017576;28;20482;-68
2023/08/22 05:07:09;;;;;;;7.35;4.85;;;;;;;18.50;74.15;101906.38;5016540;28;20046;-68
2023/08/22 05:09:35;;;;;;;5.10;4.43;;;;;;;18.45;73.84;101899.56;5020607;28;20024;-68
2023/08/22 05:12:00;;;;;;;9.75;5.47;;;;;;;18.46;73.91;101904.81;5010577;28;20102;-68
2023/08/22 05:14:27;;;;;;;9.32;5.45;;;;;;;18.41;74.58;101900.69;5011768;28;20030;-68
2023/08/22 05:16:53;;;;;;;7.20;6.00;;;;;;;18.29;75.23;101902.25;5011054;28;20030;-68
2023/08/22 05:19:18;;;;;;;10.40;7.18;;;;;;;18.33;74.93;101898.47;5012316;28;20379;-68
2023/08/22 05:21:43;;;;;;;10.05;5.32;;;;;;;18.45;74.89;101902.25;5009178;28;20519;-68
2023/08/22 05:24:09;;;;;;;11.05;6.60;;;;;;;18.53;74.26;101905.38;5021381;28;20033;-69
2023/08/22 05:26:34;;;;;;;11.43;6.75;;;;;;;18.57;75.16;101906.94;5017476;28;20390;-69
2023/08/22 05:28:59;;;;;;;9.15;6.88;;;;;;;18.67;74.96;101897.41;5004937;28;20054;-68
2023/08/22 05:31:26;;;;;;;11.23;6.65;;;;;;;18.73;74.20;101897.09;5012226;28;20028;-68
2023/08/22 05:33:51;;;;;;;7.22;5.32;;;;;;;18.87;73.49;101898.97;5015729;28;20025;-68
2023/08/22 05:36:16;;;;;;;11.18;5.95;;;;;;;18.96;73.43;101897.56;5018092;28;20032;-68
2023/08/22 05:38:42;;;;;;;9.35;6.18;;;;;;;19.04;73.55;101893.50;5003377;28;20026;-68
2023/08/22 05:41:08;;;;;;;9.38;6.57;;;;;;;19.07;74.22;101895.09;5014989;28;20038;-68
2023/08/22 05:43:33;;;;;;;12.60;8.07;;;;;;;19.17;74.34;101892.78;5015752;28;20056;-68
2023/08/22 05:45:59;;;;;;;12.88;8.82;;;;;;;19.28;73.51;101896.53;5008573;28;20068;-68
2023/08/22 05:48:24;;;;;;;12.77;7.97;;;;;;;19.41;72.80;101896.66;5018397;28;20022;-68
2023/08/22 05:50:50;;;;;;;14.68;9.77;;;;;;;19.50;72.68;101897.91;5011041;28;20024;-68
2023/08/22 05:53:16;;;;;;;19.27;9.88;;;;;;;19.55;72.57;101909.22;5011027;28;20044;-68
2023/08/22 05:55:42;;;;;;;13.80;11.32;;;;;;;19.65;72.46;101907.75;5013650;28;20444;-68
2023/08/22 05:58:07;;;;;;;16.58;11.43;;;;;;;19.63;72.41;101917.69;5018062;28;20493;-67
2023/08/22 06:00:32;;;;;;;15.90;10.77;;;;;;;19.76;72.62;101907.94;5013296;28;20034;-66
2023/08/22 06:02:58;;;;;;;16.13;11.50;;;;;;;19.93;72.86;101906.91;5018989;28;20377;-66
2023/08/22 06:05:23;;;;;;;19.83;12.52;;;;;;;20.04;74.12;101906.22;5012020;28;20046;-67
2023/08/22 06:07:48;;;;;;;18.33;12.32;;;;;;;20.16;71.57;101920.69;5015599;28;20029;-66
2023/08/22 06:10:14;;;;;;;20.55;13.80;;;;;;;20.18;72.03;101922.31;5006177;28;20022;-67
2023/08/22 06:12:39;;;;;;;21.52;14.13;;;;;;;20.10;72.80;101920.13;5012302;28;20057;-68
2023/08/22 06:15:05;;;;;;;22.30;14.27;;;;;;;19.79;74.29;101923.00;5007108;28;20067;-68
2023/08/22 06:17:31;;;;;;;17.45;14.05;;;;;;;19.85;73.83;101936.03;5020968;28;20486;-66
2023/08/22 06:19:56;;;;;;;16.05;11.50;;;;;;;19.97;72.86;101934.41;5005633;28;20097;-66
2023/08/22 06:22:21;;;;;;;18.25;12.63;;;;;;;20.03;73.11;101924.16;5012862;28;20030;-66
2023/08/22 06:24:46;;;;;;;17.15;13.80;;;;;;;20.05;73.86;101922.25;5025834;28;20444;-66
2023/08/22 06:27:12;;;;;;;18.10;14.27;;;;;;;20.09;73.49;101922.88;5019385;28;20034;-65
2023/08/22 06:29:37;;;;;;;19.55;15.15;;;;;;;20.14;73.52;101928.84;5017688;28;20052;-66
2023/08/22 06:32:02;;;;;;;19.13;14.20;;;;;;;20.19;73.42;101928.53;5021382;28;20027;-66
2023/08/22 06:34:30;;;;;;;16.73;13.20;;;;;;;20.18;73.03;101927.69;5018761;28;20057;-66
2023/08/22 06:36:55;;;;;;;19.95;13.88;;;;;;;20.41;72.50;101933.41;4998001;28;20025;-66
2023/08/22 06:39:20;;;;;;;19.33;13.20;;;;;;;20.52;72.47;101933.63;5022527;28;20026;-66
2023/08/22 06:41:46;;;;;;;17.63;12.88;;;;;;;20.56;70.95;101927.06;5019511;28;20026;-65
2023/08/22 06:44:11;;;;;;;13.75;11.68;;;;;;;20.69;69.87;101927.16;5017545;28;20029;-66
2023/08/22 06:46:36;;;;;;;14.50;10.82;;;;;;;20.86;70.07;101926.91;5017651;28;20026;-66
2023/08/22 06:49:03;;;;;;;13.95;11.07;;;;;;;20.89;70.22;101924.88;5011391;28;20349;-66
2023/08/22 06:51:28;;;;;;;22.27;11.70;;;;;;;20.94;70.13;101931.75;5017759;28;20061;-66
2023/08/22 06:53:53;;;;;;;15.45;10.93;;;;;;;21.11;69.80;101939.56;5002021;28;20318;-65
2023/08/22 06:56:19;;;;;;;18.83;11.68;;;;;;;21.09;69.63;101942.38;5016120;28;20037;-66
2023/08/22 06:58:44;;;;;;;18.77;12.82;;;;;;;21.21;69.83;101939.81;5008952;28;20564;-66
2023/08/22 07:01:09;;;;;;;16.42;12.45;;;;;;;21.33;69.71;101950.66;5003796;28;20040;-66
2023/08/22 07:03:35;;;;;;;16.88;12.85;;;;;;;21.53;69.05;101946.59;5017857;28;20030;-66
2023/08/22 07:06:00;;;;;;;16.33;10.80;;;;;;;21.50;69.07;101945.97;5020085;28;20523;-66
2023/08/22 07:08:25;;;;;;;15.98;11.35;;;;;;;21.48;69.33;101953.25;5017040;28;20124;-66
2023/08/22 07:10:50;;;;;;;16.13;11.48;;;;;;;21.68;69.18;101949.19;5011338;28;20096;-66
2023/08/22 07:13:16;;;;;;;14.52;11.02;;;;;;;21.94;68.10;101956.31;5021491;28;20029;-67
2023/08/22 07:15:43;;;;;;;14.23;10.52;;;;;;;22.12;66.36;101954.19;5015793;28;20409;-67
2023/08/22 07:18:08;;;;;;;13.30;10.25;;;;;;;22.25;65.38;101965.81;5010577;28;20481;-67
2023/08/22 07:20:33;;;;;;;10.27;9.18;;;;;;;22.45;63.99;101966.22;5010534;28;20081;-67
2023/08/22 07:22:59;;;;;;;11.30;8.60;;;;;;;22.52;63.29;101965.66;5016841;28;20025;-67
2023/08/22 07:25:24;;;;;;;8.85;6.68;;;;;;;22.61;59.62;101966.78;5008791;28;20398;-67
2023/08/22 07:27:49;;;;;;;8.75;6.90;;;;;;;22.60;59.10;101975.88;5010070;28;20029;-67
2023/08/22 07:30:14;;;;;;;9.65;6.68;;;;;;;22.71;58.88;101967.88;5007497;28;20109;-67
2023/08/22 07:32:40;;;;;;;12.02;6.97;;;;;;;22.72;59.67;101963.34;5013177;28;20373;-66
2023/08/22 07:35:05;;;;;;;11.20;7.55;;;;;;;22.85;60.47;101961.47;5009152;28;20029;-66
2023/08/22 07:37:31;;;;;;;10.27;6.90;;;;;;;23.13;58.41;101954.91;5007189;28;20036;-66
2023/08/22 07:39:56;;;;;;;7.85;5.78;;;;;;;23.30;56.87;101951.75;5009167;28;20065;-66
2023/08/22 07:42:22;;;;;;;7.55;5.57;;;;;;;23.51;55.83;101960.06;5009825;28;20030;-67
2023/08/22 07:44:47;;;;;;;6.43;3.90;;;;;;;23.70;53.19;101959.53;5002080;28;20092;-67
2023/08/22 07:47:12;;;;;;;6.60;3.88;;;;;;;24.15;52.03;101959.56;5006641;28;20025;-67
2023/08/22 07:49:37;;;;;;;6.90;4.40;;;;;;;24.58;52.18;101956.16;5006115;28;20033;-66
2023/08/22 07:52:03;;;;;;;5.13;3.70;;;;;;;24.93;50.86;101961.34;5016929;28;20036;-66
2023/08/22 07:54:29;;;;;;;5.90;4.68;;;;;;;25.11;50.23;101956.28;5006646;28;20490;-67
2023/08/22 07:56:54;;;;;;;8.93;5.43;;;;;;;25.17;49.52;101964.72;5011567;28;20101;-67
2023/08/22 07:59:20;;;;;;;11.68;7.00;;;;;;;25.27;49.09;101963.94;4997806;28;20433;-66
2023/08/22 08:01:45;;;;;;;16.42;6.50;;;;;;;25.27;50.52;101956.69;5008093;28;20029;-67
2023/08/22 08:04:10;;;;;;;11.98;6.00;;;;;;;25.14;50.56;101958.72;5016068;28;20025;-66
2023/08/22 08:06:36;;;;;;;13.70;5.78;;;;;;;25.07;49.64;101958.38;5019688;28;20050;-66
2023/08/22 08:09:05;;;;;;;9.02;5.93;;;;;;;25.01;50.09;101968.81;5006042;28;20056;-66
2023/08/22 08:11:31;;;;;;;9.80;6.03;;;;;;;25.05;49.91;101964.88;5016377;28;20076;-66
2023/08/22 08:13:57;;;;;;;12.60;5.97;;;;;;;25.07;51.33;101969.19;5004852;28;20099;-66
2023/08/22 08:16:23;;;;;;;9.95;5.95;;;;;;;25.07;50.39;101969.19;5009002;28;20081;-66
2023/08/22 08:18:51;;;;;;;10.13;6.13;;;;;;;25.15;51.28;101966.72;5014314;28;20057;-66
2023/08/22 08:21:17;;;;;;;12.82;7.30;;;;;;;25.11;51.08;101973.38;5004000;28;20025;-66
2023/08/22 08:23:44;;;;;;;13.93;7.55;;;;;;;24.98;51.85;101977.19;5013965;28;20036;-66
2023/08/22 08:26:10;;;;;;;11.70;7.55;;;;;;;24.97;51.83;101978.19;5008725;28;20018;-66
2023/08/22 08:28:35;;;;;;;11.63;6.97;;;;;;;25.08;51.11;101978.16;5008345;28;20088;-66
2023/08/22 08:31:00;;;;;;;10.90;6.85;;;;;;;25.06;50.62;101980.13;5009874;28;20048;-65
2023/08/22 08:33:25;;;;;;;13.68;7.47;;;;;;;25.16;51.74;101978.38;5013118;28;20032;-66
2023/08/22 08:35:51;;;;;;;12.68;7.65;;;;;;;25.10;50.77;101984.31;5011137;28;20026;-66
2023/08/22 08:38:16;;;;;;;14.77;7.55;;;;;;;25.08;51.56;101980.88;5003048;28;20026;-70
2023/08/22 08:40:42;;;;;;;13.68;7.72;;;;;;;25.10;50.73;101987.03;5015333;28;20746;-66
2023/08/22 08:43:08;;;;;;;11.07;7.03;;;;;;;25.21;50.63;101980.72;5007087;28;20737;-66
2023/08/22 08:45:33;;;;;;;15.35;7.40;;;;;;;25.25;51.42;101974.91;5007424;28;20113;-66
2023/08/22 08:47:59;;;;;;;13.70;7.65;;;;;;;25.30;50.34;101969.97;5011470;28;20482;-65
2023/08/22 08:50:25;;;;;;;9.52;6.30;;;;;;;25.56;48.83;101966.91;5010589;28;20030;-65
2023/08/22 08:52:51;;;;;;;14.23;6.72;;;;;;;25.68;49.61;101971.25;5016181;28;20032;-65
2023/08/22 08:55:17;;;;;;;16.58;7.07;;;;;;;25.87;49.50;101971.38;5009918;28;20022;-66
2023/08/22 08:57:42;;;;;;;11.02;6.63;;;;;;;25.80;48.68;101970.22;4989901;28;20104;-66
2023/08/22 09:00:08;;;;;;;13.75;6.95;;;;;;;25.97;49.58;101967.88;5008909;28;20065;-65
2023/08/22 09:02:33;;;;;;;9.20;6.47;;;;;;;25.98;49.78;101975.88;5007524;28;20025;-67
2023/08/22 09:04:59;;;;;;;9.80;6.05;;;;;;;26.48;48.97;101985.97;5011711;28;20017;-66
2023/08/22 09:07:25;;;;;;;10.63;6.72;;;;;;;26.51;47.53;101983.84;5009644;28;20498;-67
2023/08/22 09:09:50;;;;;;;11.50;6.63;;;;;;;26.52;47.33;101985.56;5011667;28;20025;-67
2023/08/22 09:12:15;;;;;;;14.48;7.10;;;;;;;26.40;48.16;101973.09;5009258;28;20034;-67
2023/08/22 09:14:44;;;;;;;11.38;6.95;;;;;;;26.43;47.63;101984.53;5003036;28;20065;-65
2023/08/22 09:17:13;;;;;;;9.55;6.28;;;;;;;26.37;48.68;101976.06;5012892;28;20021;-64
2023/08/22 09:19:39;;;;;;;13.80;6.40;;;;;;;26.30;48.82;101989.31;4999530;28;20108;-65
2023/08/22 09:22:05;;;;;;;11.40;6.85;;;;;;;26.32;48.64;101981.91;5013998;28;20037;-64
2023/08/22 09:24:32;;;;;;;10.60;6.63;;;;;;;26.54;49.23;101977.31;5008571;28;20108;-65
2023/08/22 09:27:02;;;;;;;11.52;7.10;;;;;;;26.79;47.32;101979.50;5014374;28;20022;-65
2023/08/22 09:29:30;;;;;;;13.98;7.30;;;;;;;26.81;46.61;101976.63;5002345;28;20034;-65
2023/08/22 09:32:02;;;;;;;13.32;7.10;;;;;;;26.92;47.62;101988.25;5005690;28;20093;-64
2023/08/22 09:34:27;;;;;;;11.35;7.95;;;;;;;26.80;47.55;101986.63;5014278;28;20029;-65
2023/08/22 09:36:54;;;;;;;11.00;7.50;;;;;;;26.89;48.28;101971.38;5009010;28;20559;-65
2023/08/22 09:39:23;;;;;;;14.38;7.88;;;;;;;27.78;46.35;101977.56;5009872;28;20117;-64
2023/08/22 09:41:52;;;;;;;14.40;7.18;;;;;;;28.58;44.47;101975.28;5003595;28;20030;-65
2023/08/22 09:44:21;;;;;;;11.30;7.53;;;;;;;29.35;42.52;101972.03;5001509;28;20019;-64
2023/08/22 09:46:49;;;;;;;13.45;7.68;;;;;;;29.75;42.17;101976.13;5004629;28;20417;-65
2023/08/22 09:49:15;;;;;;;15.85;7.30;;;;;;;29.49;41.55;101982.38;5004249;28;20026;-65
2023/08/22 09:51:43;;;;;;;12.55;7.35;;;;;;;28.86;43.28;101984.28;5016289;28;20112;-65
2023/08/22 09:54:09;;;;;;;11.70;7.55;;;;;;;28.90;43.20;101980.25;5010596;28;20040;-64
2023/08/22 09:56:36;;;;;;;13.20;7.85;;;;;;;28.55;44.84;101983.75;5014286;28;20037;-65
2023/08/22 09:59:02;;;;;;;12.60;7.75;;;;;;;28.50;43.80;101986.09;5006824;28;20030;-65
2023/08/22 10:01:28;;;;;;;11.00;7.25;;;;;;;28.34;44.64;101990.28;5007532;28;20033;-66
2023/08/22 10:03:55;;;;;;;11.57;7.97;;;;;;;28.09;44.81;101993.66;5022136;28;20033;-66
2023/08/22 10:06:28;;;;;;;15.93;8.23;;;;;;;27.80;46.61;101986.44;5010548;28;20070;-66
2023/08/22 10:08:54;;;;;;;15.77;7.75;;;;;;;28.20;44.86;101977.16;5012434;28;20450;-65
2023/08/22 10:11:22;;;;;;;14.05;8.70;;;;;;;28.68;45.20;101981.53;5017996;28;20104;-65
2023/08/22 10:13:49;;;;;;;13.15;8.45;;;;;;;28.83;44.63;101990.91;5015876;28;20484;-66
2023/08/22 10:16:14;;;;;;;13.15;7.90;;;;;;;29.22;41.89;101977.03;5001795;28;20598;-65
2023/08/22 10:18:40;;;;;;;12.32;7.60;;;;;;;28.73;42.44;101985.53;5019422;28;20026;-66
2023/08/22 10:21:05;;;;;;;11.57;7.82;;;;;;;29.01;42.53;101981.94;5014721;28;20112;-65
2023/08/22 10:23:51;;;;;;;14.13;6.22;;;;;;;29.64;42.96;101971.78;5007747;28;20026;-66
2023/08/22 10:26:16;;;;;;;11.77;6.97;;;;;;;30.31;40.07;101977.53;4995021;28;20076;-66
2023/08/22 10:28:42;;;;;;;13.77;6.60;;;;;;;30.76;40.16;101976.34;5007639;28;20049;-66
2023/08/22 10:31:08;;;;;;;11.52;6.68;;;;;;;31.23;37.46;101978.47;5007515;28;20017;-66
2023/08/22 10:33:33;;;;;;;9.82;6.63;;;;;;;31.09;38.49;101976.41;5015280;28;20477;-66
2023/08/22 10:36:15;;;;;;;12.82;6.35;;;;;;;30.64;38.91;101975.78;5005671;28;20137;-66
2023/08/22 10:38:56;;;;;;;10.48;6.10;;;;;;;29.74;40.30;101974.41;5010240;28;20037;-66
2023/08/22 10:41:23;;;;;;;11.15;6.82;;;;;;;29.92;40.41;101974.38;5009297;28;20033;-65
2023/08/22 10:43:48;;;;;;;9.07;5.13;;;;;;;30.20;39.17;101973.19;5012169;28;20411;-65
2023/08/22 10:46:14;;;;;;;10.05;4.78;;;;;;;30.89;38.08;101967.69;5013306;28;20014;-66
2023/08/22 10:48:39;;;;;;;9.80;4.55;;;;;;;31.25;38.46;101968.25;5006694;28;20037;-64
2023/08/22 10:51:06;;;;;;;8.38;4.57;;;;;;;31.47;36.88;101970.31;5017520;28;20388;-65
2023/08/22 10:53:46;;;;;;;5.50;4.25;;;;;;;31.17;36.69;101968.22;5010546;28;20029;-70
2023/08/22 10:56:17;;;;;;;6.72;3.75;;;;;;;30.95;36.77;101967.00;5016224;28;20449;-68
2023/08/22 10:58:43;;;;;;;4.40;2.45;;;;;;;30.84;34.71;101967.31;5010171;28;20460;-66
2023/08/22 11:01:13;;;;;;;4.75;2.20;;;;;;;30.65;36.89;101961.09;5005087;28;20034;-67
2023/08/22 11:03:39;;;;;;;4.85;2.70;;;;;;;30.65;36.69;101962.97;5011026;28;20512;-66
2023/08/22 11:06:12;;;;;;;5.28;2.65;;;;;;;30.82;36.24;101969.34;5013148;28;20250;-66
2023/08/22 11:08:38;;;;;;;7.68;2.95;;;;;;;30.64;36.49;101966.75;5007489;28;20030;-66
2023/08/22 11:11:04;;;;;;;7.20;2.35;;;;;;;30.55;35.84;101967.72;5010248;28;20026;-67
2023/08/22 11:13:40;;;;;;;6.07;2.40;;;;;;;30.78;36.96;101965.25;5014784;28;20036;-66
2023/08/22 11:16:11;;;;;;;4.80;2.00;;;;;;;30.40;34.68;101964.75;5010637;28;20021;-66